createdAt,value
2022-07-26T00:01:35.832Z,17.60
2022-07-26T00:04:21.629Z,18.01
2022-07-26T00:07:08.028Z,17.99
2022-07-26T00:09:53.462Z,16.77
2022-07-26T00:12:39.241Z,16.99
2022-07-26T00:15:25.303Z,17.74
2022-07-26T00:18:12.044Z,17.77
2022-07-26T00:20:58.085Z,17.77
2022-07-26T00:23:43.687Z,16.78
2022-07-26T00:26:29.015Z,16.45
2022-07-26T00:29:14.493Z,17.64
2022-07-26T00:31:59.875Z,16.74
2022-07-26T00:34:45.632Z,16.15
2022-07-26T00:37:31.198Z,17.48
2022-07-26T00:40:17.291Z,16.51
2022-07-26T00:43:03.274Z,17.51
2022-07-26T00:45:50.646Z,17.27
2022-07-26T00:48:36.554Z,16.85
2022-07-26T00:51:22.614Z,16.62
2022-07-26T00:54:08.305Z,17.44
2022-07-26T00:56:55.310Z,17.40
2022-07-26T00:59:42.181Z,17.39
2022-07-26T01:02:27.759Z,17.29
2022-07-26T01:05:13.165Z,17.31
2022-07-26T01:07:59.002Z,17.03
2022-07-26T01:10:44.363Z,16.20
2022-07-26T01:13:34.765Z,16.11
2022-07-26T01:16:20.854Z,17.26
2022-07-26T01:19:06.187Z,17.32
2022-07-26T01:21:52.051Z,16.15
2022-07-26T01:24:38.070Z,16.10
2022-07-26T01:27:23.494Z,16.87
2022-07-26T01:30:11.501Z,16.73
2022-07-26T01:32:56.671Z,16.76
2022-07-26T01:35:42.135Z,17.01
2022-07-26T01:38:27.592Z,17.02
2022-07-26T01:41:12.880Z,15.88
2022-07-26T01:43:58.318Z,17.00
2022-07-26T01:46:43.663Z,16.88
2022-07-26T01:49:29.067Z,16.13
2022-07-26T01:52:14.577Z,16.84
2022-07-26T01:55:00.041Z,16.83
2022-07-26T01:57:49.034Z,16.82
2022-07-26T02:00:34.883Z,16.78
2022-07-26T02:03:20.614Z,16.72
2022-07-26T02:06:07.213Z,16.38
2022-07-26T02:08:52.981Z,16.80
2022-07-26T02:11:39.126Z,16.68
2022-07-26T02:14:25.528Z,16.73
2022-07-26T02:17:13.717Z,16.69
2022-07-26T02:19:58.931Z,16.26
2022-07-26T02:22:45.084Z,16.65
2022-07-26T02:25:30.998Z,16.06
2022-07-26T02:28:17.360Z,15.39
2022-07-26T02:31:02.859Z,15.38
2022-07-26T02:33:52.123Z,15.50
2022-07-26T02:36:38.081Z,15.45
2022-07-26T02:39:27.778Z,15.39
2022-07-26T02:42:13.057Z,15.51
2022-07-26T02:44:58.723Z,16.33
2022-07-26T02:47:52.498Z,15.17
2022-07-26T02:50:38.968Z,16.13
2022-07-26T02:53:25.345Z,16.34
2022-07-26T02:56:11.055Z,16.31
2022-07-26T02:58:56.759Z,15.25
2022-07-26T03:01:42.429Z,16.31
2022-07-26T03:04:27.869Z,16.08
2022-07-26T03:07:13.308Z,15.56
2022-07-26T03:09:59.367Z,15.40
2022-07-26T03:12:45.125Z,15.81
2022-07-26T03:15:30.945Z,15.37
2022-07-26T03:18:16.960Z,16.02
2022-07-26T03:21:03.175Z,15.43
2022-07-26T03:23:48.816Z,16.25
2022-07-26T03:26:34.239Z,15.39
2022-07-26T03:29:19.659Z,16.26
2022-07-26T03:32:05.453Z,15.19
2022-07-26T03:34:51.389Z,15.88
2022-07-26T03:37:45.016Z,16.34
2022-07-26T03:40:31.294Z,16.38
2022-07-26T03:43:21.197Z,16.08
2022-07-26T03:46:08.896Z,15.41
2022-07-26T03:48:54.599Z,15.71
2022-07-26T03:51:40.065Z,16.39
2022-07-26T03:54:25.494Z,15.35
2022-07-26T03:57:11.392Z,16.60
2022-07-26T03:59:57.163Z,15.68
2022-07-26T04:02:43.129Z,16.62
2022-07-26T04:05:29.335Z,16.68
2022-07-26T04:08:17.644Z,16.11
2022-07-26T04:11:03.203Z,15.61
2022-07-26T04:13:48.686Z,16.28
2022-07-26T04:16:36.202Z,16.53
2022-07-26T04:19:24.964Z,16.81
2022-07-26T04:22:10.674Z,15.79
2022-07-26T04:24:56.682Z,16.86
2022-07-26T04:27:42.815Z,16.57
2022-07-26T04:30:29.053Z,16.86
2022-07-26T04:33:14.644Z,15.71
2022-07-26T04:36:01.197Z,16.51
2022-07-26T04:38:47.954Z,16.83
2022-07-26T04:41:33.682Z,16.90
2022-07-26T04:44:19.808Z,16.84
2022-07-26T04:47:06.336Z,15.86
2022-07-26T04:49:52.005Z,16.13
2022-07-26T04:52:37.860Z,17.54
2022-07-26T04:55:24.080Z,17.86
2022-07-26T04:58:10.531Z,17.42
2022-07-26T05:01:09.531Z,18.73
2022-07-26T05:03:56.193Z,18.79
2022-07-26T05:06:42.401Z,19.72
2022-07-26T05:09:29.914Z,20.01
2022-07-26T05:12:16.289Z,20.42
2022-07-26T05:15:01.835Z,20.89
2022-07-26T05:17:50.289Z,20.96
2022-07-26T05:20:37.576Z,21.56
2022-07-26T05:23:23.767Z,21.84
2022-07-26T05:26:11.553Z,22.03
2022-07-26T05:28:57.730Z,22.24
2022-07-26T05:31:43.865Z,22.47
2022-07-26T05:34:30.180Z,22.24
2022-07-26T05:37:16.223Z,21.84
2022-07-26T05:40:02.604Z,22.96
2022-07-26T05:42:49.039Z,22.33
2022-07-26T05:45:35.048Z,23.03
2022-07-26T05:48:21.434Z,23.06
2022-07-26T05:51:09.026Z,23.33
2022-07-26T05:53:55.343Z,23.20
2022-07-26T05:56:41.108Z,23.08
2022-07-26T05:59:27.545Z,22.94
2022-07-26T06:02:14.209Z,23.34
2022-07-26T06:05:00.574Z,23.68
2022-07-26T06:07:46.715Z,23.79
2022-07-26T06:10:32.454Z,22.66
2022-07-26T06:13:18.723Z,23.96
2022-07-26T06:16:05.153Z,23.99
2022-07-26T06:18:52.701Z,24.13
2022-07-26T06:21:38.361Z,23.12
2022-07-26T06:24:24.339Z,24.26
2022-07-26T06:27:11.365Z,24.13
2022-07-26T06:29:57.857Z,24.47
2022-07-26T06:32:46.541Z,24.61
2022-07-26T06:35:34.324Z,24.72
2022-07-26T06:38:19.946Z,24.23
2022-07-26T06:41:06.700Z,24.77
2022-07-26T06:43:52.675Z,24.77
2022-07-26T06:46:38.840Z,24.75
2022-07-26T06:49:24.623Z,24.99
2022-07-26T06:52:11.033Z,25.00
2022-07-26T06:54:57.286Z,25.20
2022-07-26T06:57:50.163Z,24.86
2022-07-26T07:00:37.178Z,25.15
2022-07-26T07:03:26.715Z,25.47
2022-07-26T07:06:14.141Z,25.27
2022-07-26T07:09:00.529Z,25.69
2022-07-26T07:11:51.870Z,25.75
2022-07-26T07:14:44.632Z,24.88
2022-07-26T07:17:34.609Z,25.26
2022-07-26T07:20:21.099Z,25.84
2022-07-26T07:23:08.482Z,26.15
2022-07-26T07:25:54.679Z,26.20
2022-07-26T07:28:42.755Z,26.21
2022-07-26T07:31:47.851Z,26.25
2022-07-26T07:34:34.928Z,26.07
2022-07-26T07:37:22.124Z,26.23
2022-07-26T07:40:10.440Z,26.37
2022-07-26T07:42:56.796Z,26.06
2022-07-26T07:45:43.237Z,26.47
2022-07-26T07:48:34.300Z,25.81
2022-07-26T07:51:21.183Z,26.47
2022-07-26T07:54:07.549Z,26.64
2022-07-26T07:56:56.546Z,26.71
2022-07-26T07:59:42.925Z,26.54
2022-07-26T08:02:29.188Z,26.70
2022-07-26T08:05:15.765Z,26.80
2022-07-26T08:08:03.790Z,26.86
2022-07-26T08:10:52.217Z,25.72
2022-07-26T08:13:39.109Z,26.62
2022-07-26T08:16:25.927Z,26.76
2022-07-26T08:19:12.317Z,27.04
2022-07-26T08:21:58.368Z,27.09
2022-07-26T08:24:47.325Z,27.13
2022-07-26T08:27:40.406Z,27.15
2022-07-26T08:30:27.025Z,26.97
2022-07-26T08:33:13.057Z,27.15
2022-07-26T08:35:58.802Z,26.25
2022-07-26T08:38:47.649Z,27.26
2022-07-26T08:41:34.021Z,26.71
2022-07-26T08:44:19.856Z,27.36
2022-07-26T08:47:05.983Z,27.39
2022-07-26T08:49:55.023Z,27.44
2022-07-26T08:52:44.727Z,27.27
2022-07-26T08:55:44.692Z,27.56
2022-07-26T08:58:36.840Z,27.37
2022-07-26T09:01:22.627Z,27.63
2022-07-26T09:04:31.221Z,26.84
2022-07-26T09:07:19.393Z,27.62
2022-07-26T09:10:11.671Z,27.48
2022-07-26T09:12:58.311Z,27.84
2022-07-26T09:15:44.919Z,27.82
2022-07-26T09:18:31.659Z,27.86
2022-07-26T09:21:33.152Z,27.91
2022-07-26T09:24:36.300Z,27.93
2022-07-26T09:27:26.466Z,28.00
2022-07-26T09:30:13.822Z,28.06
2022-07-26T09:33:05.670Z,27.96
2022-07-26T09:36:21.637Z,28.16
2022-07-26T09:39:07.267Z,28.18
2022-07-26T09:42:17.386Z,28.28
2022-07-26T09:45:00.278Z,28.32
2022-07-26T09:47:46.207Z,27.42
2022-07-26T09:50:33.716Z,28.35
2022-07-26T09:53:22.061Z,28.44
2022-07-26T09:56:08.516Z,28.36
2022-07-26T09:58:54.774Z,27.65
2022-07-26T10:01:40.359Z,28.48
2022-07-26T10:04:26.715Z,28.51
2022-07-26T10:07:12.261Z,28.44
2022-07-26T10:10:04.355Z,27.73
2022-07-26T10:12:52.185Z,27.62
2022-07-26T10:15:50.705Z,28.54
2022-07-26T10:18:35.879Z,28.63
2022-07-26T10:21:32.620Z,28.70
2022-07-26T10:24:28.802Z,28.76
2022-07-26T10:27:41.533Z,28.80
2022-07-26T10:30:35.172Z,28.77
2022-07-26T10:33:25.977Z,27.49
2022-07-26T10:36:39.771Z,28.95
2022-07-26T10:39:27.744Z,28.97
2022-07-26T10:42:15.162Z,28.92
2022-07-26T10:45:18.693Z,28.98
2022-07-26T10:48:24.671Z,28.99
2022-07-26T10:51:25.605Z,28.89
2022-07-26T10:54:14.105Z,28.11
2022-07-26T10:57:02.589Z,28.96
2022-07-26T10:59:56.741Z,28.96
2022-07-26T11:02:44.592Z,28.99
2022-07-26T11:05:33.821Z,28.65
2022-07-26T11:08:19.363Z,29.00
2022-07-26T11:11:05.615Z,28.53
2022-07-26T11:13:51.820Z,28.94
2022-07-26T11:16:39.093Z,28.83
2022-07-26T11:19:26.199Z,29.00
2022-07-26T11:22:12.647Z,29.00
2022-07-26T11:24:58.677Z,29.05
2022-07-26T11:28:00.919Z,29.05
2022-07-26T11:31:00.258Z,29.06
2022-07-26T11:33:51.136Z,29.06
2022-07-26T11:36:43.594Z,29.14
2022-07-26T11:39:32.930Z,29.16
2022-07-26T11:42:22.188Z,28.08
2022-07-26T11:45:11.366Z,26.66
2022-07-26T11:48:01.043Z,28.81
2022-07-26T11:50:48.698Z,29.35
2022-07-26T11:53:38.605Z,28.64
2022-07-26T11:56:24.901Z,29.28
2022-07-26T11:59:14.006Z,28.06
2022-07-26T12:02:01.570Z,27.04
2022-07-26T12:04:47.510Z,29.35
2022-07-26T12:07:33.772Z,28.56
2022-07-26T12:10:20.946Z,29.47
2022-07-26T12:13:13.293Z,28.72
2022-07-26T12:16:00.102Z,29.03
2022-07-26T12:18:51.408Z,29.51
2022-07-26T12:21:43.244Z,29.59
2022-07-26T12:24:41.592Z,29.60
2022-07-26T12:27:32.598Z,29.54
2022-07-26T12:30:18.787Z,29.58
2022-07-26T12:33:05.108Z,29.60
2022-07-26T12:35:51.756Z,29.62
2022-07-26T12:38:41.115Z,29.68
2022-07-26T12:41:39.366Z,29.73
2022-07-26T12:44:25.256Z,29.50
2022-07-26T12:47:11.354Z,29.70
2022-07-26T12:49:58.477Z,28.87
2022-07-26T12:52:44.965Z,29.70
2022-07-26T12:55:32.477Z,29.60
2022-07-26T12:58:18.676Z,29.74
2022-07-26T13:01:04.955Z,29.74
2022-07-26T13:03:51.910Z,29.75
2022-07-26T13:06:38.159Z,29.12
2022-07-26T13:09:24.050Z,29.79
2022-07-26T13:12:11.507Z,29.51
2022-07-26T13:14:57.909Z,29.80
2022-07-26T13:17:43.989Z,29.84
2022-07-26T13:20:30.687Z,29.72
2022-07-26T13:23:21.436Z,29.80
2022-07-26T13:26:10.188Z,29.78
2022-07-26T13:28:57.625Z,29.75
2022-07-26T13:31:43.133Z,29.40
2022-07-26T13:34:34.756Z,29.96
2022-07-26T13:37:20.704Z,29.96
2022-07-26T13:40:06.848Z,29.31
2022-07-26T13:42:52.691Z,29.29
2022-07-26T13:45:38.530Z,29.97
2022-07-26T13:48:24.359Z,29.99
2022-07-26T13:51:09.742Z,29.99
2022-07-26T13:53:55.675Z,29.99
2022-07-26T13:56:41.830Z,29.86
2022-07-26T13:59:27.808Z,30.02
2022-07-26T14:02:14.019Z,30.05
2022-07-26T14:04:59.978Z,30.05
2022-07-26T14:07:45.981Z,29.82
2022-07-26T14:10:31.811Z,29.14
2022-07-26T14:13:17.882Z,30.01
2022-07-26T14:16:04.516Z,30.05
2022-07-26T14:18:55.162Z,30.15
2022-07-26T14:21:48.953Z,30.14
2022-07-26T14:24:45.180Z,29.93
2022-07-26T14:27:38.063Z,30.14
2022-07-26T14:30:29.622Z,30.14
2022-07-26T14:33:22.480Z,30.11
2022-07-26T14:36:14.289Z,30.12
2022-07-26T14:39:01.728Z,30.16
2022-07-26T14:42:12.506Z,30.16
2022-07-26T14:45:03.729Z,30.06
2022-07-26T14:48:01.118Z,30.15
2022-07-26T14:51:38.110Z,30.12
2022-07-26T14:54:26.679Z,30.10
2022-07-26T14:57:17.325Z,30.05
2022-07-26T15:03:31.907Z,30.15
2022-07-26T15:06:26.859Z,30.16
2022-07-26T15:09:16.106Z,30.14
2022-07-26T15:12:32.296Z,30.10
2022-07-26T15:15:21.106Z,30.14
2022-07-26T15:18:10.199Z,30.15
2022-07-26T15:21:12.569Z,30.04
2022-07-26T15:24:04.030Z,30.04
2022-07-26T15:26:53.847Z,30.00
2022-07-26T15:29:47.288Z,30.01
2022-07-26T15:32:36.191Z,30.07
2022-07-26T15:35:24.278Z,30.06
2022-07-26T15:39:23.491Z,30.07
2022-07-26T15:42:18.207Z,30.06
2022-07-26T15:45:32.776Z,30.06
2022-07-26T15:49:22.240Z,30.03
2022-07-26T15:51:48.375Z,30.00
2022-07-26T15:54:44.451Z,29.96
2022-07-26T15:57:39.933Z,29.92
2022-07-26T16:00:34.561Z,29.89
2022-07-26T16:03:25.794Z,29.84
2022-07-26T16:06:16.268Z,29.76
2022-07-26T16:09:20.276Z,29.79
2022-07-26T16:12:09.874Z,29.73
2022-07-26T16:14:57.354Z,29.62
2022-07-26T16:17:49.311Z,29.60
2022-07-26T16:20:37.898Z,29.52
2022-07-26T16:23:25.058Z,29.43
2022-07-26T16:26:12.195Z,29.34
2022-07-26T16:28:59.730Z,28.22
2022-07-26T16:31:47.315Z,29.17
2022-07-26T16:34:37.602Z,29.10
2022-07-26T16:37:24.885Z,28.06
2022-07-26T16:40:12.253Z,28.85
2022-07-26T16:43:00.165Z,28.78
2022-07-26T16:45:57.218Z,28.69
2022-07-26T16:48:46.535Z,28.60
2022-07-26T16:51:33.433Z,28.53
2022-07-26T16:54:21.246Z,28.47
2022-07-26T16:57:09.112Z,28.09
2022-07-26T16:59:56.356Z,28.22
2022-07-26T17:02:48.811Z,28.15
2022-07-26T17:05:45.486Z,27.95
2022-07-26T17:08:35.031Z,27.62
2022-07-26T17:12:38.462Z,27.70
2022-07-26T17:15:24.245Z,27.42
2022-07-26T17:18:25.221Z,27.23
2022-07-26T17:21:22.562Z,27.15
2022-07-26T17:24:16.908Z,27.13
2022-07-26T17:27:04.628Z,27.10
2022-07-26T17:29:54.027Z,26.90
2022-07-26T17:32:42.009Z,26.13
2022-07-26T17:35:42.848Z,27.10
2022-07-26T17:38:35.413Z,27.05
2022-07-26T17:41:32.649Z,26.97
2022-07-26T17:44:22.651Z,26.88
2022-07-26T17:47:18.122Z,26.69
2022-07-26T17:53:21.757Z,26.60
2022-07-26T17:56:17.875Z,26.38
2022-07-26T17:59:04.298Z,25.87
2022-07-26T18:01:53.985Z,26.14
2022-07-26T18:04:40.938Z,25.08
2022-07-26T18:07:27.235Z,26.05
2022-07-26T18:10:14.460Z,25.54
2022-07-26T18:13:00.334Z,25.87
2022-07-26T18:15:46.356Z,25.77
2022-07-26T18:18:32.711Z,25.70
2022-07-26T18:21:19.604Z,25.48
2022-07-26T18:24:16.957Z,25.63
2022-07-26T18:27:04.608Z,25.27
2022-07-26T18:29:50.424Z,25.66
2022-07-26T18:32:36.689Z,25.62
2022-07-26T18:35:24.385Z,25.57
2022-07-26T18:38:13.858Z,25.49
2022-07-26T18:41:00.775Z,25.38
2022-07-26T18:43:49.152Z,25.37
2022-07-26T18:46:34.767Z,25.12
2022-07-26T18:49:20.785Z,25.24
2022-07-26T18:52:08.738Z,25.24
2022-07-26T18:54:59.126Z,25.17
2022-07-26T18:57:45.824Z,24.69
2022-07-26T19:00:31.655Z,25.11
2022-07-26T19:03:20.009Z,24.91
2022-07-26T19:09:41.118Z,25.20
2022-07-26T19:12:54.757Z,25.19
2022-07-26T19:15:41.049Z,25.15
2022-07-26T19:18:27.628Z,24.69
2022-07-26T19:21:13.052Z,24.89
2022-07-26T19:23:58.894Z,23.65
2022-07-26T19:26:44.739Z,24.43
2022-07-26T19:29:30.189Z,24.26
2022-07-26T19:32:16.672Z,23.33
2022-07-26T19:35:02.825Z,23.60
2022-07-26T19:37:49.021Z,23.79
2022-07-26T19:40:35.430Z,23.64
2022-07-26T19:43:23.882Z,23.13
2022-07-26T19:46:23.775Z,23.37
2022-07-26T19:49:17.630Z,23.28
2022-07-26T19:52:07.195Z,23.16
2022-07-26T19:54:58.907Z,23.15
2022-07-26T19:57:44.721Z,23.00
2022-07-26T20:00:30.529Z,22.90
2022-07-26T20:03:16.228Z,22.51
2022-07-26T20:06:02.054Z,22.66
2022-07-26T20:08:49.902Z,22.35
2022-07-26T20:11:36.110Z,22.52
2022-07-26T20:14:35.186Z,22.50
2022-07-26T20:17:30.962Z,22.13
2022-07-26T20:20:18.183Z,22.48
2022-07-26T20:23:06.236Z,21.86
2022-07-26T20:25:51.980Z,22.52
2022-07-26T20:28:38.868Z,22.18
2022-07-26T20:31:25.219Z,21.45
2022-07-26T20:34:11.841Z,21.35
2022-07-26T20:37:00.314Z,22.32
2022-07-26T20:39:47.364Z,21.53
2022-07-26T20:42:34.142Z,21.18
2022-07-26T20:45:19.890Z,20.93
2022-07-26T20:48:06.624Z,22.20
2022-07-26T20:50:52.315Z,21.09
2022-07-26T20:53:37.580Z,21.93
2022-07-26T20:56:23.318Z,21.63
2022-07-26T20:59:10.191Z,21.85
2022-07-26T21:01:55.989Z,20.72
2022-07-26T21:04:41.922Z,21.80
2022-07-26T21:07:55.609Z,21.03
2022-07-26T21:10:33.062Z,21.73
2022-07-26T21:13:18.995Z,21.73
2022-07-26T21:16:06.317Z,21.76
2022-07-26T21:18:55.986Z,21.82
2022-07-26T21:21:48.972Z,21.87
2022-07-26T21:25:06.497Z,21.90
2022-07-26T21:27:56.387Z,21.32
2022-07-26T21:30:42.204Z,20.69
2022-07-26T21:33:28.091Z,21.20
2022-07-26T21:36:14.682Z,21.43
2022-07-26T21:39:00.694Z,21.35
2022-07-26T21:41:47.002Z,21.46
2022-07-26T21:44:32.527Z,21.48
2022-07-26T21:47:18.741Z,21.36
2022-07-26T21:50:11.611Z,21.63
2022-07-26T21:53:08.913Z,21.63
2022-07-26T21:56:14.504Z,21.62
2022-07-26T21:59:02.183Z,21.16
2022-07-26T22:01:55.526Z,21.27
2022-07-26T22:04:57.365Z,21.28
2022-07-26T22:07:49.306Z,21.32
2022-07-26T22:10:42.283Z,21.41
2022-07-26T22:13:48.104Z,21.08
2022-07-26T22:16:49.248Z,21.33
2022-07-26T22:19:35.592Z,20.50
2022-07-26T22:22:21.497Z,21.28
2022-07-26T22:25:07.902Z,21.25
2022-07-26T22:27:54.396Z,21.12
2022-07-26T22:30:40.759Z,21.16
2022-07-26T22:33:33.076Z,21.18
2022-07-26T22:36:29.224Z,21.08
2022-07-26T22:39:15.370Z,20.46
2022-07-26T22:42:16.251Z,20.09
2022-07-26T22:45:02.165Z,21.00
2022-07-26T22:47:56.749Z,19.92
2022-07-26T22:50:42.680Z,20.00
2022-07-26T22:53:28.548Z,20.87
2022-07-26T22:56:14.366Z,19.49
2022-07-26T22:59:05.106Z,19.80
2022-07-26T23:01:51.565Z,20.74
2022-07-26T23:04:37.217Z,19.62
2022-07-26T23:07:22.538Z,19.49
2022-07-26T23:10:10.981Z,19.51
2022-07-26T23:12:58.346Z,20.15
2022-07-26T23:15:47.262Z,20.50
2022-07-26T23:18:35.805Z,19.67
2022-07-26T23:21:21.256Z,20.34
2022-07-26T23:24:07.035Z,20.43
2022-07-26T23:26:52.573Z,20.20
2022-07-26T23:29:38.006Z,19.30
2022-07-26T23:32:23.451Z,20.30
2022-07-26T23:35:09.074Z,20.29
2022-07-26T23:37:54.720Z,19.74
2022-07-26T23:40:40.436Z,19.15
2022-07-26T23:43:27.568Z,20.15
2022-07-26T23:46:13.472Z,19.01
2022-07-26T23:48:58.880Z,19.82
2022-07-26T23:51:44.185Z,19.85
2022-07-26T23:54:29.671Z,20.04
2022-07-26T23:57:15.519Z,19.05
